sensor_id;sensor_type;location;lat;lon;timestamp;P1;durP1;ratioP1;P2;durP2;ratioP2
44722;SDS011;30451;48.638;10.624;2022-12-05T00:02:20;3.53;;;2.10;;
44722;SDS011;30451;48.638;10.624;2022-12-05T00:04:46;2.97;;;1.90;;
44722;SDS011;30451;48.638;10.624;2022-12-05T00:07:12;3.08;;;2.20;;
44722;SDS011;30451;48.638;10.624;2022-12-05T00:09:37;4.35;;;2.20;;
44722;SDS011;30451;48.638;10.624;2022-12-05T00:12:03;3.13;;;2.15;;
44722;SDS011;30451;48.638;10.624;2022-12-05T00:14:29;3.33;;;2.30;;
44722;SDS011;30451;48.638;10.624;2022-12-05T00:16:54;3.08;;;1.95;;
44722;SDS011;30451;48.638;10.624;2022-12-05T00:19:20;3.45;;;2.25;;
44722;SDS011;30451;48.638;10.624;2022-12-05T00:21:46;2.70;;;1.90;;
44722;SDS011;30451;48.638;10.624;2022-12-05T00:24:13;3.40;;;2.10;;
44722;SDS011;30451;48.638;10.624;2022-12-05T00:26:40;3.58;;;2.20;;
44722;SDS011;30451;48.638;10.624;2022-12-05T00:29:06;3.65;;;2.10;;
44722;SDS011;30451;48.638;10.624;2022-12-05T00:31:32;2.88;;;2.00;;
44722;SDS011;30451;48.638;10.624;2022-12-05T00:33:59;2.92;;;2.00;;
44722;SDS011;30451;48.638;10.624;2022-12-05T00:36:27;3.28;;;2.30;;
44722;SDS011;30451;48.638;10.624;2022-12-05T00:38:54;3.08;;;2.10;;
44722;SDS011;30451;48.638;10.624;2022-12-05T00:41:23;3.15;;;1.80;;
44722;SDS011;30451;48.638;10.624;2022-12-05T00:43:50;2.80;;;1.92;;
44722;SDS011;30451;48.638;10.624;2022-12-05T00:46:17;2.80;;;1.88;;
44722;SDS011;30451;48.638;10.624;2022-12-05T00:48:45;3.13;;;2.10;;
44722;SDS011;30451;48.638;10.624;2022-12-05T00:51:15;3.10;;;2.03;;
44722;SDS011;30451;48.638;10.624;2022-12-05T00:53:43;3.20;;;2.30;;
44722;SDS011;30451;48.638;10.624;2022-12-05T00:56:10;3.17;;;2.20;;
44722;SDS011;30451;48.638;10.624;2022-12-05T00:58:38;3.00;;;2.10;;
44722;SDS011;30451;48.638;10.624;2022-12-05T01:01:05;3.17;;;2.03;;
44722;SDS011;30451;48.638;10.624;2022-12-05T01:03:57;3.00;;;2.13;;
44722;SDS011;30451;48.638;10.624;2022-12-05T01:06:24;2.78;;;1.90;;
44722;SDS011;30451;48.638;10.624;2022-12-05T01:08:51;2.60;;;1.80;;
44722;SDS011;30451;48.638;10.624;2022-12-05T01:11:18;2.92;;;2.03;;
44722;SDS011;30451;48.638;10.624;2022-12-05T01:13:45;3.58;;;2.10;;
44722;SDS011;30451;48.638;10.624;2022-12-05T01:16:15;2.70;;;1.80;;
44722;SDS011;30451;48.638;10.624;2022-12-05T01:18:51;2.80;;;2.00;;
44722;SDS011;30451;48.638;10.624;2022-12-05T01:21:17;2.58;;;1.80;;
44722;SDS011;30451;48.638;10.624;2022-12-05T01:23:43;2.58;;;1.80;;
44722;SDS011;30451;48.638;10.624;2022-12-05T01:26:10;2.70;;;1.90;;
44722;SDS011;30451;48.638;10.624;2022-12-05T01:28:38;3.25;;;2.00;;
44722;SDS011;30451;48.638;10.624;2022-12-05T01:31:05;3.35;;;2.25;;
44722;SDS011;30451;48.638;10.624;2022-12-05T01:33:34;2.78;;;2.00;;
44722;SDS011;30451;48.638;10.624;2022-12-05T01:36:00;3.25;;;2.17;;
44722;SDS011;30451;48.638;10.624;2022-12-05T01:38:27;2.70;;;1.80;;
44722;SDS011;30451;48.638;10.624;2022-12-05T01:41:00;3.13;;;2.10;;
44722;SDS011;30451;48.638;10.624;2022-12-05T01:43:29;3.63;;;1.90;;
44722;SDS011;30451;48.638;10.624;2022-12-05T01:45:55;2.72;;;2.00;;
44722;SDS011;30451;48.638;10.624;2022-12-05T01:48:25;2.67;;;1.70;;
44722;SDS011;30451;48.638;10.624;2022-12-05T01:50:56;3.15;;;2.03;;
44722;SDS011;30451;48.638;10.624;2022-12-05T01:53:23;3.03;;;1.90;;
44722;SDS011;30451;48.638;10.624;2022-12-05T01:55:50;3.63;;;2.35;;
44722;SDS011;30451;48.638;10.624;2022-12-05T01:58:16;2.70;;;1.90;;
44722;SDS011;30451;48.638;10.624;2022-12-05T02:00:43;3.00;;;1.92;;
44722;SDS011;30451;48.638;10.624;2022-12-05T02:03:10;2.80;;;1.90;;
44722;SDS011;30451;48.638;10.624;2022-12-05T02:05:41;2.90;;;1.80;;
44722;SDS011;30451;48.638;10.624;2022-12-05T02:08:09;2.95;;;2.00;;
44722;SDS011;30451;48.638;10.624;2022-12-05T02:10:39;2.78;;;1.92;;
44722;SDS011;30451;48.638;10.624;2022-12-05T02:13:28;3.38;;;1.95;;
44722;SDS011;30451;48.638;10.624;2022-12-05T02:43:06;3.08;;;2.08;;
44722;SDS011;30451;48.638;10.624;2022-12-05T02:45:47;2.85;;;2.00;;
44722;SDS011;30451;48.638;10.624;2022-12-05T02:48:16;2.63;;;1.90;;
44722;SDS011;30451;48.638;10.624;2022-12-05T02:50:43;3.03;;;1.90;;
44722;SDS011;30451;48.638;10.624;2022-12-05T02:53:12;2.88;;;2.00;;
44722;SDS011;30451;48.638;10.624;2022-12-05T02:55:40;3.33;;;2.13;;
44722;SDS011;30451;48.638;10.624;2022-12-05T02:58:08;3.15;;;2.10;;
44722;SDS011;30451;48.638;10.624;2022-12-05T03:00:38;2.90;;;1.98;;
44722;SDS011;30451;48.638;10.624;2022-12-05T03:03:11;2.92;;;2.00;;
44722;SDS011;30451;48.638;10.624;2022-12-05T03:08:35;2.72;;;1.88;;
44722;SDS011;30451;48.638;10.624;2022-12-05T03:11:07;2.70;;;1.77;;
44722;SDS011;30451;48.638;10.624;2022-12-05T03:13:34;3.10;;;1.90;;
44722;SDS011;30451;48.638;10.624;2022-12-05T03:16:07;2.85;;;1.90;;
44722;SDS011;30451;48.638;10.624;2022-12-05T03:18:44;3.00;;;2.17;;
44722;SDS011;30451;48.638;10.624;2022-12-05T03:21:24;2.80;;;1.95;;
44722;SDS011;30451;48.638;10.624;2022-12-05T03:24:02;3.13;;;2.10;;
44722;SDS011;30451;48.638;10.624;2022-12-05T03:32:10;3.03;;;2.08;;
44722;SDS011;30451;48.638;10.624;2022-12-05T03:40:22;3.17;;;2.10;;
44722;SDS011;30451;48.638;10.624;2022-12-05T03:42:49;2.67;;;2.10;;
44722;SDS011;30451;48.638;10.624;2022-12-05T03:45:25;2.70;;;1.80;;
44722;SDS011;30451;48.638;10.624;2022-12-05T03:50:33;2.72;;;2.00;;
44722;SDS011;30451;48.638;10.624;2022-12-05T03:53:05;3.13;;;2.00;;
44722;SDS011;30451;48.638;10.624;2022-12-05T03:55:34;2.92;;;2.00;;
44722;SDS011;30451;48.638;10.624;2022-12-05T04:00:42;2.90;;;1.98;;
44722;SDS011;30451;48.638;10.624;2022-12-05T04:10:54;3.00;;;2.22;;
44722;SDS011;30451;48.638;10.624;2022-12-05T04:13:35;3.10;;;2.10;;
44722;SDS011;30451;48.638;10.624;2022-12-05T04:16:06;3.13;;;2.00;;
44722;SDS011;30451;48.638;10.624;2022-12-05T04:21:40;3.00;;;2.10;;
44722;SDS011;30451;48.638;10.624;2022-12-05T04:24:21;2.75;;;1.67;;
44722;SDS011;30451;48.638;10.624;2022-12-05T04:35:29;2.67;;;1.83;;
44722;SDS011;30451;48.638;10.624;2022-12-05T04:37:59;2.80;;;2.00;;
44722;SDS011;30451;48.638;10.624;2022-12-05T04:40:58;2.53;;;1.80;;
44722;SDS011;30451;48.638;10.624;2022-12-05T04:43:20;2.58;;;1.75;;
44722;SDS011;30451;48.638;10.624;2022-12-05T04:45:48;2.58;;;1.70;;
44722;SDS011;30451;48.638;10.624;2022-12-05T04:48:16;2.20;;;1.48;;
44722;SDS011;30451;48.638;10.624;2022-12-05T04:50:46;2.22;;;1.52;;
44722;SDS011;30451;48.638;10.624;2022-12-05T04:53:16;2.42;;;1.80;;
44722;SDS011;30451;48.638;10.624;2022-12-05T04:55:44;2.53;;;1.75;;
44722;SDS011;30451;48.638;10.624;2022-12-05T04:58:22;3.10;;;2.00;;
44722;SDS011;30451;48.638;10.624;2022-12-05T05:03:33;2.53;;;1.87;;
44722;SDS011;30451;48.638;10.624;2022-12-05T05:06:00;2.97;;;1.80;;
44722;SDS011;30451;48.638;10.624;2022-12-05T05:08:26;2.60;;;1.70;;
44722;SDS011;30451;48.638;10.624;2022-12-05T05:13:25;2.30;;;1.60;;
44722;SDS011;30451;48.638;10.624;2022-12-05T05:15:51;2.95;;;1.90;;
44722;SDS011;30451;48.638;10.624;2022-12-05T05:18:16;2.67;;;1.80;;
44722;SDS011;30451;48.638;10.624;2022-12-05T05:20:42;2.47;;;1.60;;
44722;SDS011;30451;48.638;10.624;2022-12-05T05:23:08;2.95;;;2.00;;
44722;SDS011;30451;48.638;10.624;2022-12-05T05:25:33;2.70;;;1.75;;
44722;SDS011;30451;48.638;10.624;2022-12-05T05:27:59;2.38;;;1.70;;
44722;SDS011;30451;48.638;10.624;2022-12-05T05:30:24;2.60;;;1.90;;
44722;SDS011;30451;48.638;10.624;2022-12-05T05:32:50;2.58;;;1.80;;
44722;SDS011;30451;48.638;10.624;2022-12-05T05:35:16;2.83;;;1.95;;
44722;SDS011;30451;48.638;10.624;2022-12-05T05:37:42;2.83;;;1.77;;
44722;SDS011;30451;48.638;10.624;2022-12-05T05:40:09;2.78;;;1.95;;
44722;SDS011;30451;48.638;10.624;2022-12-05T05:42:40;3.08;;;1.77;;
44722;SDS011;30451;48.638;10.624;2022-12-05T05:45:07;2.80;;;1.83;;
44722;SDS011;30451;48.638;10.624;2022-12-05T05:47:34;2.90;;;2.00;;
44722;SDS011;30451;48.638;10.624;2022-12-05T05:50:00;2.58;;;1.83;;
44722;SDS011;30451;48.638;10.624;2022-12-05T05:52:25;2.40;;;1.70;;
44722;SDS011;30451;48.638;10.624;2022-12-05T05:54:51;2.85;;;2.05;;
44722;SDS011;30451;48.638;10.624;2022-12-05T05:57:16;3.10;;;2.05;;
44722;SDS011;30451;48.638;10.624;2022-12-05T05:59:42;2.78;;;2.03;;
44722;SDS011;30451;48.638;10.624;2022-12-05T06:02:08;2.90;;;1.80;;
44722;SDS011;30451;48.638;10.624;2022-12-05T06:04:34;2.25;;;1.58;;
44722;SDS011;30451;48.638;10.624;2022-12-05T06:06:59;3.33;;;2.28;;
44722;SDS011;30451;48.638;10.624;2022-12-05T06:09:25;2.42;;;1.70;;
44722;SDS011;30451;48.638;10.624;2022-12-05T06:11:51;2.90;;;1.95;;
44722;SDS011;30451;48.638;10.624;2022-12-05T06:14:16;2.65;;;2.00;;
44722;SDS011;30451;48.638;10.624;2022-12-05T06:16:42;3.08;;;1.98;;
44722;SDS011;30451;48.638;10.624;2022-12-05T06:19:08;2.90;;;1.90;;
44722;SDS011;30451;48.638;10.624;2022-12-05T06:21:33;2.58;;;1.83;;
44722;SDS011;30451;48.638;10.624;2022-12-05T06:23:59;2.60;;;1.80;;
44722;SDS011;30451;48.638;10.624;2022-12-05T06:26:24;2.50;;;1.80;;
44722;SDS011;30451;48.638;10.624;2022-12-05T06:28:50;2.50;;;1.80;;
44722;SDS011;30451;48.638;10.624;2022-12-05T06:31:17;2.55;;;1.80;;
44722;SDS011;30451;48.638;10.624;2022-12-05T06:33:44;2.78;;;1.88;;
44722;SDS011;30451;48.638;10.624;2022-12-05T06:36:11;3.00;;;1.95;;
44722;SDS011;30451;48.638;10.624;2022-12-05T06:41:06;2.63;;;1.88;;
44722;SDS011;30451;48.638;10.624;2022-12-05T06:43:32;2.80;;;1.85;;
44722;SDS011;30451;48.638;10.624;2022-12-05T06:45:59;2.63;;;1.75;;
44722;SDS011;30451;48.638;10.624;2022-12-05T06:48:28;2.45;;;1.75;;
44722;SDS011;30451;48.638;10.624;2022-12-05T06:50:54;2.75;;;1.83;;
44722;SDS011;30451;48.638;10.624;2022-12-05T06:53:19;2.60;;;1.80;;
44722;SDS011;30451;48.638;10.624;2022-12-05T06:55:55;2.63;;;1.60;;
44722;SDS011;30451;48.638;10.624;2022-12-05T06:58:22;3.00;;;1.85;;
44722;SDS011;30451;48.638;10.624;2022-12-05T07:00:48;2.67;;;2.00;;
44722;SDS011;30451;48.638;10.624;2022-12-05T07:03:32;2.92;;;1.90;;
44722;SDS011;30451;48.638;10.624;2022-12-05T07:05:59;3.00;;;2.10;;
44722;SDS011;30451;48.638;10.624;2022-12-05T07:08:25;2.60;;;1.70;;
44722;SDS011;30451;48.638;10.624;2022-12-05T07:10:51;2.58;;;1.83;;
44722;SDS011;30451;48.638;10.624;2022-12-05T07:13:17;2.50;;;1.80;;
44722;SDS011;30451;48.638;10.624;2022-12-05T07:15:47;2.75;;;1.70;;
44722;SDS011;30451;48.638;10.624;2022-12-05T07:18:14;2.83;;;1.70;;
44722;SDS011;30451;48.638;10.624;2022-12-05T07:20:40;2.50;;;1.73;;
44722;SDS011;30451;48.638;10.624;2022-12-05T07:23:07;3.08;;;1.90;;
44722;SDS011;30451;48.638;10.624;2022-12-05T07:25:33;2.53;;;1.73;;
44722;SDS011;30451;48.638;10.624;2022-12-05T07:27:58;2.83;;;1.90;;
44722;SDS011;30451;48.638;10.624;2022-12-05T07:30:24;3.72;;;2.10;;
44722;SDS011;30451;48.638;10.624;2022-12-05T07:32:50;2.70;;;1.85;;
44722;SDS011;30451;48.638;10.624;2022-12-05T07:35:15;2.75;;;1.70;;
44722;SDS011;30451;48.638;10.624;2022-12-05T07:37:41;2.70;;;1.80;;
44722;SDS011;30451;48.638;10.624;2022-12-05T07:40:06;2.72;;;1.70;;
44722;SDS011;30451;48.638;10.624;2022-12-05T07:42:33;3.05;;;1.80;;
44722;SDS011;30451;48.638;10.624;2022-12-05T07:44:58;2.65;;;1.70;;
44722;SDS011;30451;48.638;10.624;2022-12-05T07:47:24;2.80;;;1.70;;
44722;SDS011;30451;48.638;10.624;2022-12-05T07:49:49;3.22;;;1.80;;
44722;SDS011;30451;48.638;10.624;2022-12-05T07:52:15;3.25;;;2.03;;
44722;SDS011;30451;48.638;10.624;2022-12-05T07:54:41;2.72;;;1.70;;
44722;SDS011;30451;48.638;10.624;2022-12-05T07:57:06;2.80;;;1.88;;
44722;SDS011;30451;48.638;10.624;2022-12-05T07:59:32;2.30;;;1.50;;
44722;SDS011;30451;48.638;10.624;2022-12-05T08:01:58;2.28;;;1.80;;
44722;SDS011;30451;48.638;10.624;2022-12-05T08:04:23;2.88;;;1.70;;
44722;SDS011;30451;48.638;10.624;2022-12-05T08:06:49;2.83;;;1.73;;
44722;SDS011;30451;48.638;10.624;2022-12-05T08:09:15;2.47;;;1.70;;
44722;SDS011;30451;48.638;10.624;2022-12-05T08:11:40;2.80;;;1.88;;
44722;SDS011;30451;48.638;10.624;2022-12-05T08:14:06;3.00;;;1.80;;
44722;SDS011;30451;48.638;10.624;2022-12-05T08:16:33;2.70;;;1.65;;
44722;SDS011;30451;48.638;10.624;2022-12-05T08:19:03;2.45;;;1.70;;
44722;SDS011;30451;48.638;10.624;2022-12-05T08:21:30;2.80;;;1.73;;
44722;SDS011;30451;48.638;10.624;2022-12-05T08:23:56;3.00;;;2.00;;
44722;SDS011;30451;48.638;10.624;2022-12-05T08:26:23;2.97;;;1.90;;
44722;SDS011;30451;48.638;10.624;2022-12-05T08:28:54;2.90;;;1.80;;
44722;SDS011;30451;48.638;10.624;2022-12-05T08:31:25;2.47;;;1.58;;
44722;SDS011;30451;48.638;10.624;2022-12-05T08:33:54;2.63;;;1.80;;
44722;SDS011;30451;48.638;10.624;2022-12-05T08:36:21;2.78;;;1.77;;
44722;SDS011;30451;48.638;10.624;2022-12-05T08:38:47;2.30;;;1.50;;
44722;SDS011;30451;48.638;10.624;2022-12-05T08:41:13;3.42;;;1.65;;
44722;SDS011;30451;48.638;10.624;2022-12-05T08:43:41;2.33;;;1.70;;
44722;SDS011;30451;48.638;10.624;2022-12-05T08:46:07;2.20;;;1.58;;
44722;SDS011;30451;48.638;10.624;2022-12-05T08:48:33;2.40;;;1.70;;
44722;SDS011;30451;48.638;10.624;2022-12-05T08:51:07;2.20;;;1.60;;
44722;SDS011;30451;48.638;10.624;2022-12-05T08:53:34;2.72;;;1.75;;
44722;SDS011;30451;48.638;10.624;2022-12-05T08:56:01;2.60;;;1.85;;
44722;SDS011;30451;48.638;10.624;2022-12-05T08:58:28;2.63;;;1.75;;
44722;SDS011;30451;48.638;10.624;2022-12-05T09:01:02;2.85;;;1.85;;
44722;SDS011;30451;48.638;10.624;2022-12-05T09:03:29;3.20;;;1.80;;
44722;SDS011;30451;48.638;10.624;2022-12-05T09:06:03;2.70;;;1.70;;
44722;SDS011;30451;48.638;10.624;2022-12-05T09:08:56;2.30;;;1.70;;
44722;SDS011;30451;48.638;10.624;2022-12-05T09:11:25;2.53;;;1.77;;
44722;SDS011;30451;48.638;10.624;2022-12-05T09:13:52;2.50;;;1.70;;
44722;SDS011;30451;48.638;10.624;2022-12-05T09:16:20;2.80;;;1.70;;
44722;SDS011;30451;48.638;10.624;2022-12-05T09:18:48;2.67;;;1.80;;
44722;SDS011;30451;48.638;10.624;2022-12-05T09:21:16;2.50;;;1.60;;
44722;SDS011;30451;48.638;10.624;2022-12-05T09:23:47;2.80;;;1.80;;
44722;SDS011;30451;48.638;10.624;2022-12-05T09:26:14;2.75;;;1.75;;
44722;SDS011;30451;48.638;10.624;2022-12-05T09:28:41;3.15;;;1.70;;
44722;SDS011;30451;48.638;10.624;2022-12-05T09:31:09;2.20;;;1.60;;
44722;SDS011;30451;48.638;10.624;2022-12-05T09:33:37;2.90;;;1.80;;
44722;SDS011;30451;48.638;10.624;2022-12-05T09:36:03;2.88;;;1.88;;
44722;SDS011;30451;48.638;10.624;2022-12-05T09:38:31;2.40;;;1.50;;
44722;SDS011;30451;48.638;10.624;2022-12-05T09:41:09;2.90;;;1.80;;
44722;SDS011;30451;48.638;10.624;2022-12-05T09:44:35;2.53;;;1.75;;
44722;SDS011;30451;48.638;10.624;2022-12-05T09:49:34;3.17;;;1.77;;
44722;SDS011;30451;48.638;10.624;2022-12-05T09:52:07;3.08;;;1.88;;
44722;SDS011;30451;48.638;10.624;2022-12-05T09:54:41;2.42;;;1.63;;
44722;SDS011;30451;48.638;10.624;2022-12-05T09:57:08;2.72;;;1.80;;
44722;SDS011;30451;48.638;10.624;2022-12-05T09:59:36;2.20;;;1.60;;
44722;SDS011;30451;48.638;10.624;2022-12-05T10:07:09;2.17;;;1.42;;
44722;SDS011;30451;48.638;10.624;2022-12-05T10:17:41;2.20;;;1.42;;
44722;SDS011;30451;48.638;10.624;2022-12-05T10:22:46;2.30;;;1.60;;
44722;SDS011;30451;48.638;10.624;2022-12-05T10:25:17;2.03;;;1.52;;
44722;SDS011;30451;48.638;10.624;2022-12-05T10:27:52;2.65;;;1.65;;
44722;SDS011;30451;48.638;10.624;2022-12-05T10:30:21;2.33;;;1.55;;
44722;SDS011;30451;48.638;10.624;2022-12-05T10:32:52;2.60;;;1.63;;
44722;SDS011;30451;48.638;10.624;2022-12-05T10:35:27;2.42;;;1.70;;
44722;SDS011;30451;48.638;10.624;2022-12-05T10:37:58;2.47;;;1.70;;
44722;SDS011;30451;48.638;10.624;2022-12-05T10:40:39;2.58;;;1.70;;
44722;SDS011;30451;48.638;10.624;2022-12-05T10:43:09;2.90;;;1.80;;
44722;SDS011;30451;48.638;10.624;2022-12-05T10:45:40;2.00;;;1.45;;
44722;SDS011;30451;48.638;10.624;2022-12-05T10:48:08;2.83;;;1.60;;
44722;SDS011;30451;48.638;10.624;2022-12-05T10:50:37;2.40;;;1.60;;
44722;SDS011;30451;48.638;10.624;2022-12-05T10:53:04;2.40;;;1.77;;
44722;SDS011;30451;48.638;10.624;2022-12-05T10:55:35;2.40;;;1.60;;
44722;SDS011;30451;48.638;10.624;2022-12-05T10:58:08;3.05;;;1.60;;
44722;SDS011;30451;48.638;10.624;2022-12-05T11:00:35;2.60;;;1.70;;
44722;SDS011;30451;48.638;10.624;2022-12-05T11:03:14;2.40;;;1.70;;
44722;SDS011;30451;48.638;10.624;2022-12-05T11:08:58;2.72;;;1.73;;
44722;SDS011;30451;48.638;10.624;2022-12-05T11:11:29;2.45;;;1.63;;
44722;SDS011;30451;48.638;10.624;2022-12-05T11:16:51;2.65;;;1.75;;
44722;SDS011;30451;48.638;10.624;2022-12-05T11:19:32;2.75;;;1.75;;
44722;SDS011;30451;48.638;10.624;2022-12-05T11:22:00;2.70;;;1.63;;
44722;SDS011;30451;48.638;10.624;2022-12-05T11:24:27;2.40;;;1.52;;
44722;SDS011;30451;48.638;10.624;2022-12-05T11:32:29;3.00;;;1.80;;
44722;SDS011;30451;48.638;10.624;2022-12-05T11:34:58;2.10;;;1.60;;
44722;SDS011;30451;48.638;10.624;2022-12-05T11:37:31;2.45;;;1.40;;
44722;SDS011;30451;48.638;10.624;2022-12-05T11:40:01;2.45;;;1.77;;
44722;SDS011;30451;48.638;10.624;2022-12-05T11:53:41;3.10;;;1.60;;
44722;SDS011;30451;48.638;10.624;2022-12-05T11:58:53;2.45;;;1.55;;
44722;SDS011;30451;48.638;10.624;2022-12-05T12:15:26;2.65;;;1.80;;
44722;SDS011;30451;48.638;10.624;2022-12-05T12:17:57;2.80;;;1.60;;
44722;SDS011;30451;48.638;10.624;2022-12-05T12:28:26;2.60;;;1.70;;
44722;SDS011;30451;48.638;10.624;2022-12-05T12:36:54;2.28;;;1.45;;
44722;SDS011;30451;48.638;10.624;2022-12-05T13:03:42;3.10;;;1.67;;
44722;SDS011;30451;48.638;10.624;2022-12-05T13:06:28;2.58;;;1.67;;
44722;SDS011;30451;48.638;10.624;2022-12-05T13:09:01;2.75;;;1.58;;
44722;SDS011;30451;48.638;10.624;2022-12-05T13:11:34;4.40;;;2.05;;
44722;SDS011;30451;48.638;10.624;2022-12-05T13:14:03;2.65;;;1.55;;
44722;SDS011;30451;48.638;10.624;2022-12-05T13:16:39;2.47;;;1.48;;
44722;SDS011;30451;48.638;10.624;2022-12-05T13:19:09;2.40;;;1.48;;
44722;SDS011;30451;48.638;10.624;2022-12-05T13:21:47;4.70;;;1.70;;
44722;SDS011;30451;48.638;10.624;2022-12-05T13:24:13;3.13;;;1.60;;
44722;SDS011;30451;48.638;10.624;2022-12-05T13:26:44;2.75;;;1.70;;
44722;SDS011;30451;48.638;10.624;2022-12-05T13:29:18;4.47;;;2.08;;
44722;SDS011;30451;48.638;10.624;2022-12-05T13:31:46;2.83;;;1.58;;
44722;SDS011;30451;48.638;10.624;2022-12-05T13:34:46;2.55;;;1.70;;
44722;SDS011;30451;48.638;10.624;2022-12-05T13:37:19;3.10;;;1.60;;
44722;SDS011;30451;48.638;10.624;2022-12-05T13:40:21;3.75;;;2.00;;
44722;SDS011;30451;48.638;10.624;2022-12-05T13:43:18;2.97;;;1.67;;
44722;SDS011;30451;48.638;10.624;2022-12-05T13:45:53;3.10;;;1.60;;
44722;SDS011;30451;48.638;10.624;2022-12-05T13:48:25;2.40;;;1.50;;
44722;SDS011;30451;48.638;10.624;2022-12-05T13:50:58;2.75;;;1.65;;
44722;SDS011;30451;48.638;10.624;2022-12-05T13:53:47;2.35;;;1.40;;
44722;SDS011;30451;48.638;10.624;2022-12-05T13:56:25;3.28;;;1.63;;
44722;SDS011;30451;48.638;10.624;2022-12-05T13:59:09;3.08;;;1.67;;
44722;SDS011;30451;48.638;10.624;2022-12-05T14:01:45;3.10;;;1.80;;
44722;SDS011;30451;48.638;10.624;2022-12-05T14:04:55;2.72;;;1.70;;
44722;SDS011;30451;48.638;10.624;2022-12-05T14:07:35;2.83;;;1.70;;
44722;SDS011;30451;48.638;10.624;2022-12-05T14:10:04;2.60;;;1.40;;
44722;SDS011;30451;48.638;10.624;2022-12-05T14:34:56;2.63;;;1.52;;
44722;SDS011;30451;48.638;10.624;2022-12-05T14:37:30;3.00;;;1.67;;
44722;SDS011;30451;48.638;10.624;2022-12-05T14:40:02;3.13;;;1.63;;
44722;SDS011;30451;48.638;10.624;2022-12-05T14:43:03;2.70;;;1.60;;
44722;SDS011;30451;48.638;10.624;2022-12-05T14:50:39;2.92;;;1.58;;
44722;SDS011;30451;48.638;10.624;2022-12-05T14:53:22;2.90;;;1.65;;
44722;SDS011;30451;48.638;10.624;2022-12-05T15:04:02;3.10;;;1.50;;
44722;SDS011;30451;48.638;10.624;2022-12-05T15:06:45;2.65;;;1.40;;
44722;SDS011;30451;48.638;10.624;2022-12-05T15:15:11;2.30;;;1.20;;
44722;SDS011;30451;48.638;10.624;2022-12-05T15:17:51;3.08;;;1.52;;
44722;SDS011;30451;48.638;10.624;2022-12-05T15:20:44;2.80;;;1.50;;
44722;SDS011;30451;48.638;10.624;2022-12-05T15:23:37;3.28;;;1.30;;
44722;SDS011;30451;48.638;10.624;2022-12-05T15:28:55;2.78;;;1.40;;
44722;SDS011;30451;48.638;10.624;2022-12-05T15:31:26;2.92;;;1.40;;
44722;SDS011;30451;48.638;10.624;2022-12-05T15:33:54;3.42;;;1.40;;
44722;SDS011;30451;48.638;10.624;2022-12-05T15:36:25;3.53;;;1.25;;
44722;SDS011;30451;48.638;10.624;2022-12-05T15:39:01;3.10;;;1.50;;
44722;SDS011;30451;48.638;10.624;2022-12-05T15:41:40;2.15;;;1.30;;
44722;SDS011;30451;48.638;10.624;2022-12-05T15:44:05;2.70;;;1.50;;
44722;SDS011;30451;48.638;10.624;2022-12-05T15:46:31;2.33;;;1.40;;
44722;SDS011;30451;48.638;10.624;2022-12-05T15:48:57;2.85;;;1.67;;
44722;SDS011;30451;48.638;10.624;2022-12-05T15:51:30;2.58;;;1.40;;
44722;SDS011;30451;48.638;10.624;2022-12-05T15:56:34;2.30;;;1.40;;
44722;SDS011;30451;48.638;10.624;2022-12-05T16:02:31;3.78;;;1.60;;
44722;SDS011;30451;48.638;10.624;2022-12-05T16:04:52;1.98;;;1.30;;
44722;SDS011;30451;48.638;10.624;2022-12-05T16:07:23;2.55;;;1.48;;
44722;SDS011;30451;48.638;10.624;2022-12-05T16:09:54;2.78;;;1.42;;
44722;SDS011;30451;48.638;10.624;2022-12-05T16:12:23;2.47;;;1.48;;
44722;SDS011;30451;48.638;10.624;2022-12-05T16:15:03;2.67;;;1.48;;
44722;SDS011;30451;48.638;10.624;2022-12-05T16:17:44;3.03;;;1.40;;
44722;SDS011;30451;48.638;10.624;2022-12-05T16:22:43;3.90;;;1.55;;
44722;SDS011;30451;48.638;10.624;2022-12-05T16:25:13;2.03;;;1.30;;
44722;SDS011;30451;48.638;10.624;2022-12-05T16:27:57;2.28;;;1.30;;
44722;SDS011;30451;48.638;10.624;2022-12-05T16:30:25;1.98;;;1.20;;
44722;SDS011;30451;48.638;10.624;2022-12-05T16:32:58;2.55;;;1.40;;
44722;SDS011;30451;48.638;10.624;2022-12-05T16:35:40;3.10;;;1.42;;
44722;SDS011;30451;48.638;10.624;2022-12-05T16:38:23;2.97;;;1.60;;
44722;SDS011;30451;48.638;10.624;2022-12-05T16:41:03;2.40;;;1.20;;
44722;SDS011;30451;48.638;10.624;2022-12-05T16:48:40;2.67;;;1.55;;
44722;SDS011;30451;48.638;10.624;2022-12-05T16:51:18;2.50;;;1.40;;
44722;SDS011;30451;48.638;10.624;2022-12-05T16:53:49;2.53;;;1.42;;
44722;SDS011;30451;48.638;10.624;2022-12-05T16:56:27;1.80;;;1.23;;
44722;SDS011;30451;48.638;10.624;2022-12-05T16:59:02;1.80;;;1.20;;
44722;SDS011;30451;48.638;10.624;2022-12-05T17:01:29;2.75;;;1.33;;
44722;SDS011;30451;48.638;10.624;2022-12-05T17:03:55;2.08;;;1.20;;
44722;SDS011;30451;48.638;10.624;2022-12-05T17:06:23;2.28;;;1.25;;
44722;SDS011;30451;48.638;10.624;2022-12-05T17:08:50;2.20;;;1.40;;
44722;SDS011;30451;48.638;10.624;2022-12-05T17:11:20;1.65;;;1.10;;
44722;SDS011;30451;48.638;10.624;2022-12-05T17:13:48;1.95;;;1.17;;
44722;SDS011;30451;48.638;10.624;2022-12-05T17:16:15;2.40;;;1.40;;
44722;SDS011;30451;48.638;10.624;2022-12-05T17:18:42;2.45;;;1.40;;
44722;SDS011;30451;48.638;10.624;2022-12-05T17:21:09;1.75;;;1.17;;
44722;SDS011;30451;48.638;10.624;2022-12-05T17:23:38;3.13;;;1.42;;
44722;SDS011;30451;48.638;10.624;2022-12-05T17:26:03;2.20;;;1.40;;
44722;SDS011;30451;48.638;10.624;2022-12-05T17:28:29;3.67;;;1.30;;
44722;SDS011;30451;48.638;10.624;2022-12-05T17:30:55;2.28;;;1.20;;
44722;SDS011;30451;48.638;10.624;2022-12-05T17:33:21;2.03;;;1.23;;
44722;SDS011;30451;48.638;10.624;2022-12-05T17:35:46;2.25;;;1.30;;
44722;SDS011;30451;48.638;10.624;2022-12-05T17:38:12;1.92;;;1.30;;
44722;SDS011;30451;48.638;10.624;2022-12-05T17:40:38;2.22;;;1.30;;
44722;SDS011;30451;48.638;10.624;2022-12-05T17:43:04;1.60;;;1.05;;
44722;SDS011;30451;48.638;10.624;2022-12-05T17:45:30;2.53;;;1.40;;
44722;SDS011;30451;48.638;10.624;2022-12-05T17:47:56;2.03;;;1.13;;
44722;SDS011;30451;48.638;10.624;2022-12-05T17:50:22;2.55;;;1.60;;
44722;SDS011;30451;48.638;10.624;2022-12-05T17:52:49;3.03;;;1.20;;
44722;SDS011;30451;48.638;10.624;2022-12-05T17:55:20;3.13;;;1.30;;
44722;SDS011;30451;48.638;10.624;2022-12-05T17:57:47;1.83;;;1.20;;
44722;SDS011;30451;48.638;10.624;2022-12-05T18:00:19;2.00;;;1.23;;
44722;SDS011;30451;48.638;10.624;2022-12-05T18:02:46;2.00;;;1.27;;
44722;SDS011;30451;48.638;10.624;2022-12-05T18:05:12;2.45;;;1.30;;
44722;SDS011;30451;48.638;10.624;2022-12-05T18:07:40;2.65;;;1.40;;
44722;SDS011;30451;48.638;10.624;2022-12-05T18:10:08;2.97;;;1.60;;
44722;SDS011;30451;48.638;10.624;2022-12-05T18:12:39;4.43;;;2.30;;
44722;SDS011;30451;48.638;10.624;2022-12-05T18:15:05;4.63;;;2.30;;
44722;SDS011;30451;48.638;10.624;2022-12-05T18:17:31;4.95;;;2.63;;
44722;SDS011;30451;48.638;10.624;2022-12-05T18:19:57;6.10;;;2.63;;
44722;SDS011;30451;48.638;10.624;2022-12-05T18:22:23;6.78;;;3.00;;
44722;SDS011;30451;48.638;10.624;2022-12-05T18:24:52;4.93;;;2.80;;
44722;SDS011;30451;48.638;10.624;2022-12-05T18:27:19;5.40;;;3.28;;
44722;SDS011;30451;48.638;10.624;2022-12-05T18:29:54;8.13;;;3.50;;
44722;SDS011;30451;48.638;10.624;2022-12-05T18:32:20;5.57;;;3.20;;
44722;SDS011;30451;48.638;10.624;2022-12-05T18:34:46;8.77;;;3.80;;
44722;SDS011;30451;48.638;10.624;2022-12-05T18:37:11;5.93;;;3.50;;
44722;SDS011;30451;48.638;10.624;2022-12-05T18:39:37;6.60;;;3.35;;